sensor_id;sensor_type;location;lat;lon;timestamp;pressure;altitude;pressure_sealevel;temperature;humidity
53932;BME280;39844;52.496;13.482;2023-04-06T00:02:17;101929.75;;;4.34;70.43
53932;BME280;39844;52.496;13.482;2023-04-06T00:04:43;101927.97;;;4.33;69.83
53932;BME280;39844;52.496;13.482;2023-04-06T00:07:09;101923.63;;;4.32;70.27
53932;BME280;39844;52.496;13.482;2023-04-06T00:09:34;101917.44;;;4.30;70.08
53932;BME280;39844;52.496;13.482;2023-04-06T00:12:00;101913.13;;;4.30;70.93
53932;BME280;39844;52.496;13.482;2023-04-06T00:14:25;101916.59;;;4.29;70.77
53932;BME280;39844;52.496;13.482;2023-04-06T00:16:50;101915.69;;;4.29;71.00
53932;BME280;39844;52.496;13.482;2023-04-06T00:19:16;101917.34;;;4.27;70.86
53932;BME280;39844;52.496;13.482;2023-04-06T00:21:41;101925.16;;;4.27;71.38
53932;BME280;39844;52.496;13.482;2023-04-06T00:24:06;101918.09;;;4.24;71.01
53932;BME280;39844;52.496;13.482;2023-04-06T00:26:32;101921.56;;;4.25;71.65
53932;BME280;39844;52.496;13.482;2023-04-06T00:28:57;101916.28;;;4.22;71.46
53932;BME280;39844;52.496;13.482;2023-04-06T00:31:22;101917.09;;;4.21;71.60
53932;BME280;39844;52.496;13.482;2023-04-06T00:33:48;101911.75;;;4.18;71.78
53932;BME280;39844;52.496;13.482;2023-04-06T00:36:13;101916.94;;;4.18;72.17
53932;BME280;39844;52.496;13.482;2023-04-06T00:38:38;101916.91;;;4.16;72.18
53932;BME280;39844;52.496;13.482;2023-04-06T00:41:04;101917.72;;;4.15;72.29
53932;BME280;39844;52.496;13.482;2023-04-06T00:43:29;101915.06;;;4.14;72.40
53932;BME280;39844;52.496;13.482;2023-04-06T00:45:55;101906.38;;;4.13;73.75
53932;BME280;39844;52.496;13.482;2023-04-06T00:48:20;101902.75;;;4.10;72.79
53932;BME280;39844;52.496;13.482;2023-04-06T00:50:45;101906.13;;;4.07;72.52
53932;BME280;39844;52.496;13.482;2023-04-06T00:53:11;101906.97;;;4.06;72.78
53932;BME280;39844;52.496;13.482;2023-04-06T00:55:36;101905.16;;;4.05;73.24
53932;BME280;39844;52.496;13.482;2023-04-06T00:58:02;101902.44;;;4.02;72.80
53932;BME280;39844;52.496;13.482;2023-04-06T01:00:27;101912.91;;;4.04;73.78
53932;BME280;39844;52.496;13.482;2023-04-06T01:02:53;101909.38;;;4.02;73.35
53932;BME280;39844;52.496;13.482;2023-04-06T01:05:18;101905.81;;;4.00;73.58
53932;BME280;39844;52.496;13.482;2023-04-06T01:07:43;101905.75;;;3.98;73.66
53932;BME280;39844;52.496;13.482;2023-04-06T01:10:09;101900.47;;;3.97;73.31
53932;BME280;39844;52.496;13.482;2023-04-06T01:12:34;101902.13;;;3.95;73.52
53932;BME280;39844;52.496;13.482;2023-04-06T01:15:00;101915.13;;;3.95;73.82
53932;BME280;39844;52.496;13.482;2023-04-06T01:17:25;101901.19;;;3.93;73.31
53932;BME280;39844;52.496;13.482;2023-04-06T01:19:51;101903.66;;;3.90;73.34
53932;BME280;39844;52.496;13.482;2023-04-06T01:22:18;101907.09;;;3.89;73.30
53932;BME280;39844;52.496;13.482;2023-04-06T01:24:45;101901.81;;;3.87;73.54
53932;BME280;39844;52.496;13.482;2023-04-06T01:27:10;101916.50;;;3.87;73.25
53932;BME280;39844;52.496;13.482;2023-04-06T01:29:36;101897.47;;;3.86;73.82
53932;BME280;39844;52.496;13.482;2023-04-06T01:32:01;101905.16;;;3.84;73.46
53932;BME280;39844;52.496;13.482;2023-04-06T01:34:26;101898.28;;;3.85;74.26
53932;BME280;39844;52.496;13.482;2023-04-06T01:36:52;101901.63;;;3.82;73.95
53932;BME280;39844;52.496;13.482;2023-04-06T01:39:18;101905.03;;;3.81;73.54
53932;BME280;39844;52.496;13.482;2023-04-06T01:41:43;101898.91;;;3.79;74.06
53932;BME280;39844;52.496;13.482;2023-04-06T01:44:09;101896.28;;;3.79;74.25
53932;BME280;39844;52.496;13.482;2023-04-06T01:46:34;101900.59;;;3.79;74.01
53932;BME280;39844;52.496;13.482;2023-04-06T01:48:59;101901.34;;;3.76;74.53
53932;BME280;39844;52.496;13.482;2023-04-06T01:51:25;101902.19;;;3.75;74.25
53932;BME280;39844;52.496;13.482;2023-04-06T01:53:50;101904.78;;;3.75;74.40
53932;BME280;39844;52.496;13.482;2023-04-06T01:56:15;101906.44;;;3.73;74.21
53932;BME280;39844;52.496;13.482;2023-04-06T01:58:40;101900.34;;;3.73;74.47
53932;BME280;39844;52.496;13.482;2023-04-06T02:01:06;101903.75;;;3.72;74.03
53932;BME280;39844;52.496;13.482;2023-04-06T02:03:31;101904.66;;;3.72;74.40
53932;BME280;39844;52.496;13.482;2023-04-06T02:05:56;101896.88;;;3.72;74.05
53932;BME280;39844;52.496;13.482;2023-04-06T02:08:22;101897.63;;;3.70;73.36
53932;BME280;39844;52.496;13.482;2023-04-06T02:10:47;101901.13;;;3.70;73.59
53932;BME280;39844;52.496;13.482;2023-04-06T02:13:12;101899.34;;;3.69;73.63
53932;BME280;39844;52.496;13.482;2023-04-06T02:15:38;101900.16;;;3.68;73.66
53932;BME280;39844;52.496;13.482;2023-04-06T02:18:03;101900.97;;;3.67;74.28
53932;BME280;39844;52.496;13.482;2023-04-06T02:20:29;101900.09;;;3.67;74.35
53932;BME280;39844;52.496;13.482;2023-04-06T02:22:58;101896.59;;;3.66;74.84
53932;BME280;39844;52.496;13.482;2023-04-06T02:25:23;101898.25;;;3.64;74.25
53932;BME280;39844;52.496;13.482;2023-04-06T02:27:49;101911.09;;;3.61;74.00
53932;BME280;39844;52.496;13.482;2023-04-06T02:30:14;101897.16;;;3.59;74.26
53932;BME280;39844;52.496;13.482;2023-04-06T02:32:39;101907.41;;;3.56;74.67
53932;BME280;39844;52.496;13.482;2023-04-06T02:35:05;101903.88;;;3.54;74.99
53932;BME280;39844;52.496;13.482;2023-04-06T02:37:30;101902.91;;;3.52;75.15
53932;BME280;39844;52.496;13.482;2023-04-06T02:39:55;101909.69;;;3.49;75.09
53932;BME280;39844;52.496;13.482;2023-04-06T02:42:21;101909.63;;;3.47;75.08
53932;BME280;39844;52.496;13.482;2023-04-06T02:44:46;101902.59;;;3.45;75.80
53932;BME280;39844;52.496;13.482;2023-04-06T02:47:11;101909.44;;;3.43;75.65
53932;BME280;39844;52.496;13.482;2023-04-06T02:49:37;101912.78;;;3.40;75.81
53932;BME280;39844;52.496;13.482;2023-04-06T02:52:02;101910.03;;;3.37;75.89
53932;BME280;39844;52.496;13.482;2023-04-06T02:54:28;101910.72;;;3.33;76.16
53932;BME280;39844;52.496;13.482;2023-04-06T02:56:53;101903.69;;;3.31;76.67
53932;BME280;39844;52.496;13.482;2023-04-06T02:59:19;101906.16;;;3.28;76.67
53932;BME280;39844;52.496;13.482;2023-04-06T03:01:44;101915.50;;;3.24;76.48
53932;BME280;39844;52.496;13.482;2023-04-06T03:04:09;101920.56;;;3.21;76.44
53932;BME280;39844;52.496;13.482;2023-04-06T03:06:35;101916.06;;;3.17;76.24
53932;BME280;39844;52.496;13.482;2023-04-06T03:09:00;101915.91;;;3.14;76.70
53932;BME280;39844;52.496;13.482;2023-04-06T03:11:25;101923.63;;;3.12;76.67
53932;BME280;39844;52.496;13.482;2023-04-06T03:13:51;101916.53;;;3.08;76.79
53932;BME280;39844;52.496;13.482;2023-04-06T03:16:16;101915.50;;;3.05;76.76
53932;BME280;39844;52.496;13.482;2023-04-06T03:18:41;101916.13;;;2.99;76.20
53932;BME280;39844;52.496;13.482;2023-04-06T03:21:07;101913.38;;;2.96;76.50
53932;BME280;39844;52.496;13.482;2023-04-06T03:23:32;101916.66;;;2.92;76.27
53932;BME280;39844;52.496;13.482;2023-04-06T03:25:57;101914.69;;;2.87;76.76
53932;BME280;39844;52.496;13.482;2023-04-06T03:28:23;101911.09;;;2.85;77.05
53932;BME280;39844;52.496;13.482;2023-04-06T03:30:49;101917.78;;;2.80;77.27
53932;BME280;39844;52.496;13.482;2023-04-06T03:33:14;101919.41;;;2.78;77.69
53932;BME280;39844;52.496;13.482;2023-04-06T03:35:40;101922.69;;;2.74;77.93
53932;BME280;39844;52.496;13.482;2023-04-06T03:38:05;101923.28;;;2.68;77.98
53932;BME280;39844;52.496;13.482;2023-04-06T03:40:31;101930.03;;;2.65;78.13
53932;BME280;39844;52.496;13.482;2023-04-06T03:42:56;101923.72;;;2.60;78.63
53932;BME280;39844;52.496;13.482;2023-04-06T03:45:21;101921.81;;;2.55;78.71
53932;BME280;39844;52.496;13.482;2023-04-06T03:47:47;101929.38;;;2.51;79.48
53932;BME280;39844;52.496;13.482;2023-04-06T03:50:12;101930.13;;;2.48;79.87
53932;BME280;39844;52.496;13.482;2023-04-06T03:52:37;101941.16;;;2.44;79.87
53932;BME280;39844;52.496;13.482;2023-04-06T03:55:03;101939.28;;;2.42;80.85
53932;BME280;39844;52.496;13.482;2023-04-06T03:57:29;101943.47;;;2.38;81.16
53932;BME280;39844;52.496;13.482;2023-04-06T03:59:54;101944.19;;;2.36;81.58
53932;BME280;39844;52.496;13.482;2023-04-06T04:02:19;101944.03;;;2.33;82.03
53932;BME280;39844;52.496;13.482;2023-04-06T04:04:45;101953.34;;;2.29;82.00
53932;BME280;39844;52.496;13.482;2023-04-06T04:07:10;101953.31;;;2.28;82.42
53932;BME280;39844;52.496;13.482;2023-04-06T04:09:36;101949.66;;;2.24;82.88
53932;BME280;39844;52.496;13.482;2023-04-06T04:12:02;101959.06;;;2.22;82.83
53932;BME280;39844;52.496;13.482;2023-04-06T04:14:27;101951.88;;;2.17;82.91
53932;BME280;39844;52.496;13.482;2023-04-06T04:16:53;101955.28;;;2.16;83.66
53932;BME280;39844;52.496;13.482;2023-04-06T04:19:18;101962.00;;;2.12;83.92
53932;BME280;39844;52.496;13.482;2023-04-06T04:21:44;101953.94;;;2.06;84.13
53932;BME280;39844;52.496;13.482;2023-04-06T04:24:10;101958.97;;;2.03;84.49
53932;BME280;39844;52.496;13.482;2023-04-06T04:26:36;101964.00;;;2.00;85.16
53932;BME280;39844;52.496;13.482;2023-04-06T04:29:02;101958.66;;;1.97;85.12
53932;BME280;39844;52.496;13.482;2023-04-06T04:31:27;101960.28;;;1.95;85.03
53932;BME280;39844;52.496;13.482;2023-04-06T04:33:53;101965.47;;;1.95;85.42
53932;BME280;39844;52.496;13.482;2023-04-06T04:36:18;101962.72;;;1.92;85.50
53932;BME280;39844;52.496;13.482;2023-04-06T04:38:43;101964.50;;;1.93;85.85
53932;BME280;39844;52.496;13.482;2023-04-06T04:41:09;101958.34;;;1.91;85.99
53932;BME280;39844;52.496;13.482;2023-04-06T04:43:34;101963.38;;;1.88;85.94
53932;BME280;39844;52.496;13.482;2023-04-06T04:45:59;101966.72;;;1.85;86.45
53932;BME280;39844;52.496;13.482;2023-04-06T04:48:24;101961.44;;;1.84;86.44
53932;BME280;39844;52.496;13.482;2023-04-06T04:50:50;101963.88;;;1.81;86.22
53932;BME280;39844;52.496;13.482;2023-04-06T04:53:15;101965.59;;;1.80;86.73
53932;BME280;39844;52.496;13.482;2023-04-06T04:55:40;101970.66;;;1.79;86.86
53932;BME280;39844;52.496;13.482;2023-04-06T04:58:06;101968.97;;;1.79;87.23
53932;BME280;39844;52.496;13.482;2023-04-06T05:00:31;101972.47;;;1.80;87.23
53932;BME280;39844;52.496;13.482;2023-04-06T05:02:56;101968.91;;;1.78;87.32
53932;BME280;39844;52.496;13.482;2023-04-06T05:05:22;101966.31;;;1.78;87.29
53932;BME280;39844;52.496;13.482;2023-04-06T05:07:47;101964.69;;;1.80;87.74
53932;BME280;39844;52.496;13.482;2023-04-06T05:10:12;101964.84;;;1.83;87.83
53932;BME280;39844;52.496;13.482;2023-04-06T05:12:38;101970.16;;;1.86;88.32
53932;BME280;39844;52.496;13.482;2023-04-06T05:15:04;101969.44;;;1.88;88.51
53932;BME280;39844;52.496;13.482;2023-04-06T05:17:29;101972.28;;;1.93;88.63
53932;BME280;39844;52.496;13.482;2023-04-06T05:19:55;101977.56;;;1.96;88.32
53932;BME280;39844;52.496;13.482;2023-04-06T05:22:20;101971.66;;;1.99;88.34
53932;BME280;39844;52.496;13.482;2023-04-06T05:24:45;101976.22;;;2.03;88.23
53932;BME280;39844;52.496;13.482;2023-04-06T05:27:11;101980.66;;;2.05;87.74
53932;BME280;39844;52.496;13.482;2023-04-06T05:29:36;101976.44;;;2.07;88.03
53932;BME280;39844;52.496;13.482;2023-04-06T05:32:02;101982.66;;;2.11;88.06
53932;BME280;39844;52.496;13.482;2023-04-06T05:34:27;101982.88;;;2.15;87.24
53932;BME280;39844;52.496;13.482;2023-04-06T05:36:52;101974.44;;;2.19;86.87
53932;BME280;39844;52.496;13.482;2023-04-06T05:39:18;101979.94;;;2.25;86.20
53932;BME280;39844;52.496;13.482;2023-04-06T05:41:43;101982.84;;;2.31;85.75
53932;BME280;39844;52.496;13.482;2023-04-06T05:44:08;101986.59;;;2.38;85.52
53932;BME280;39844;52.496;13.482;2023-04-06T05:46:34;101982.59;;;2.44;85.09
53932;BME280;39844;52.496;13.482;2023-04-06T05:48:59;101978.53;;;2.49;84.33
53932;BME280;39844;52.496;13.482;2023-04-06T05:51:25;101989.22;;;2.55;84.17
53932;BME280;39844;52.496;13.482;2023-04-06T05:53:50;101980.00;;;2.62;83.69
53932;BME280;39844;52.496;13.482;2023-04-06T05:56:15;101980.16;;;2.65;83.00
53932;BME280;39844;52.496;13.482;2023-04-06T05:58:41;101979.50;;;2.69;82.85
53932;BME280;39844;52.496;13.482;2023-04-06T06:01:06;101976.19;;;2.72;82.33
53932;BME280;39844;52.496;13.482;2023-04-06T06:03:31;101985.06;;;2.77;81.99
53932;BME280;39844;52.496;13.482;2023-04-06T06:06:03;101976.53;;;2.79;81.66
53932;BME280;39844;52.496;13.482;2023-04-06T06:08:29;101977.69;;;2.86;81.48
53932;BME280;39844;52.496;13.482;2023-04-06T06:10:55;101978.66;;;2.88;80.98
53932;BME280;39844;52.496;13.482;2023-04-06T06:13:22;101981.41;;;2.91;80.59
53932;BME280;39844;52.496;13.482;2023-04-06T06:15:48;101985.78;;;2.92;80.32
53932;BME280;39844;52.496;13.482;2023-04-06T06:18:13;101982.34;;;2.93;79.75
53932;BME280;39844;52.496;13.482;2023-04-06T06:20:38;101979.91;;;2.96;79.58
53932;BME280;39844;52.496;13.482;2023-04-06T06:23:04;101981.75;;;2.98;79.43
53932;BME280;39844;52.496;13.482;2023-04-06T06:25:29;101980.13;;;3.00;79.29
53932;BME280;39844;52.496;13.482;2023-04-06T06:27:54;101979.38;;;3.03;79.13
53932;BME280;39844;52.496;13.482;2023-04-06T06:30:20;101982.94;;;3.05;79.08
53932;BME280;39844;52.496;13.482;2023-04-06T06:32:45;101982.25;;;3.09;78.78
53932;BME280;39844;52.496;13.482;2023-04-06T06:35:10;101989.34;;;3.13;78.86
53932;BME280;39844;52.496;13.482;2023-04-06T06:37:36;101983.66;;;3.20;78.88
53932;BME280;39844;52.496;13.482;2023-04-06T06:40:01;101986.59;;;3.28;78.09
53932;BME280;39844;52.496;13.482;2023-04-06T06:42:26;101983.44;;;3.35;77.53
53932;BME280;39844;52.496;13.482;2023-04-06T06:44:52;101976.63;;;3.37;76.74
53932;BME280;39844;52.496;13.482;2023-04-06T06:47:17;101990.75;;;3.43;76.14
53932;BME280;39844;52.496;13.482;2023-04-06T06:49:43;101986.69;;;3.48;75.67
53932;BME280;39844;52.496;13.482;2023-04-06T06:52:08;101991.16;;;3.52;74.88
53932;BME280;39844;52.496;13.482;2023-04-06T06:54:33;101990.56;;;3.58;74.43
53932;BME280;39844;52.496;13.482;2023-04-06T06:56:59;101987.34;;;3.63;73.74
53932;BME280;39844;52.496;13.482;2023-04-06T06:59:24;101996.34;;;3.71;73.17
53932;BME280;39844;52.496;13.482;2023-04-06T07:01:50;101991.44;;;3.77;72.49
53932;BME280;39844;52.496;13.482;2023-04-06T07:04:15;101989.16;;;3.85;72.20
53932;BME280;39844;52.496;13.482;2023-04-06T07:06:40;101991.28;;;3.94;71.63
53932;BME280;39844;52.496;13.482;2023-04-06T07:09:06;101989.81;;;4.00;70.70
53932;BME280;39844;52.496;13.482;2023-04-06T07:11:31;101994.66;;;4.12;70.29
53932;BME280;39844;52.496;13.482;2023-04-06T07:13:56;101984.78;;;4.24;69.38
53932;BME280;39844;52.496;13.482;2023-04-06T07:16:22;101989.44;;;4.32;68.72
53932;BME280;39844;52.496;13.482;2023-04-06T07:18:47;101991.56;;;4.41;68.16
53932;BME280;39844;52.496;13.482;2023-04-06T07:21:13;101983.13;;;4.46;67.58
53932;BME280;39844;52.496;13.482;2023-04-06T07:23:38;101981.59;;;4.52;67.09
53932;BME280;39844;52.496;13.482;2023-04-06T07:26:03;101987.03;;;4.58;66.73
53932;BME280;39844;52.496;13.482;2023-04-06T07:28:29;101976.00;;;4.63;66.54
53932;BME280;39844;52.496;13.482;2023-04-06T07:30:54;101980.63;;;4.70;65.83
53932;BME280;39844;52.496;13.482;2023-04-06T07:33:20;101981.78;;;4.78;65.67
53932;BME280;39844;52.496;13.482;2023-04-06T07:35:45;101978.63;;;4.85;65.08
53932;BME280;39844;52.496;13.482;2023-04-06T07:38:11;101980.69;;;4.94;65.07
53932;BME280;39844;52.496;13.482;2023-04-06T07:40:37;101980.97;;;5.01;64.08
53932;BME280;39844;52.496;13.482;2023-04-06T07:43:02;101978.66;;;5.09;63.68
53932;BME280;39844;52.496;13.482;2023-04-06T07:45:28;101979.84;;;5.17;63.57
53932;BME280;39844;52.496;13.482;2023-04-06T07:47:53;101969.69;;;5.23;63.06
53932;BME280;39844;52.496;13.482;2023-04-06T07:50:19;101975.09;;;5.29;62.30
53932;BME280;39844;52.496;13.482;2023-04-06T07:52:44;101970.19;;;5.37;61.46
53932;BME280;39844;52.496;13.482;2023-04-06T07:55:10;101975.75;;;5.46;61.44
53932;BME280;39844;52.496;13.482;2023-04-06T07:57:35;101976.06;;;5.55;61.57
53932;BME280;39844;52.496;13.482;2023-04-06T08:00:01;101974.63;;;5.63;61.72
53932;BME280;39844;52.496;13.482;2023-04-06T08:02:26;101974.84;;;5.69;60.92
53932;BME280;39844;52.496;13.482;2023-04-06T08:04:51;101983.72;;;5.74;59.82
53932;BME280;39844;52.496;13.482;2023-04-06T08:07:18;101976.09;;;5.80;59.36
53932;BME280;39844;52.496;13.482;2023-04-06T08:09:43;101979.91;;;5.88;59.42
53932;BME280;39844;52.496;13.482;2023-04-06T08:12:08;101976.75;;;5.97;59.16
53932;BME280;39844;52.496;13.482;2023-04-06T08:14:34;101975.34;;;6.06;58.50
53932;BME280;39844;52.496;13.482;2023-04-06T08:16:59;101973.88;;;6.14;57.87
53932;BME280;39844;52.496;13.482;2023-04-06T08:19:24;101970.69;;;6.23;57.81
53932;BME280;39844;52.496;13.482;2023-04-06T08:21:50;101983.22;;;6.33;57.40
53932;BME280;39844;52.496;13.482;2023-04-06T08:24:15;101978.97;;;6.36;56.19
53932;BME280;39844;52.496;13.482;2023-04-06T08:26:40;101980.94;;;6.44;55.45
53932;BME280;39844;52.496;13.482;2023-04-06T08:29:06;101963.81;;;6.52;55.34
53932;BME280;39844;52.496;13.482;2023-04-06T08:31:31;101967.56;;;6.60;54.60
53932;BME280;39844;52.496;13.482;2023-04-06T08:33:57;101967.78;;;6.66;53.75
53932;BME280;39844;52.496;13.482;2023-04-06T08:36:22;101962.72;;;6.72;53.02
53932;BME280;39844;52.496;13.482;2023-04-06T08:38:49;101957.81;;;6.81;52.83
53932;BME280;39844;52.496;13.482;2023-04-06T08:41:15;101960.69;;;6.90;52.35
53932;BME280;39844;52.496;13.482;2023-04-06T08:43:47;101964.44;;;6.98;51.82
53932;BME280;39844;52.496;13.482;2023-04-06T08:46:14;101964.63;;;7.04;51.38
53932;BME280;39844;52.496;13.482;2023-04-06T08:48:41;101970.00;;;7.10;50.93
53932;BME280;39844;52.496;13.482;2023-04-06T08:51:06;101954.56;;;7.18;50.39
53932;BME280;39844;52.496;13.482;2023-04-06T08:53:32;101951.25;;;7.23;49.76
53932;BME280;39844;52.496;13.482;2023-04-06T08:55:59;101954.00;;;7.28;49.20
53932;BME280;39844;52.496;13.482;2023-04-06T08:58:28;101952.47;;;7.34;49.16
53932;BME280;39844;52.496;13.482;2023-04-06T09:00:54;101955.22;;;7.40;49.55
53932;BME280;39844;52.496;13.482;2023-04-06T09:03:21;101967.50;;;7.43;49.57
53932;BME280;39844;52.496;13.482;2023-04-06T09:05:47;101958.94;;;7.47;49.95
53932;BME280;39844;52.496;13.482;2023-04-06T09:08:13;101959.03;;;7.51;49.03
53932;BME280;39844;52.496;13.482;2023-04-06T09:10:40;101960.09;;;7.58;49.68
53932;BME280;39844;52.496;13.482;2023-04-06T09:13:06;101952.44;;;7.64;49.48
53932;BME280;39844;52.496;13.482;2023-04-06T09:15:32;101949.84;;;7.65;48.73
53932;BME280;39844;52.496;13.482;2023-04-06T09:17:57;101941.38;;;7.74;48.83
53932;BME280;39844;52.496;13.482;2023-04-06T09:20:24;101946.66;;;7.76;48.55
53932;BME280;39844;52.496;13.482;2023-04-06T09:22:49;101940.59;;;7.77;48.01
53932;BME280;39844;52.496;13.482;2023-04-06T09:25:19;101944.03;;;7.76;47.68
53932;BME280;39844;52.496;13.482;2023-04-06T09:27:45;101937.94;;;7.75;46.79
53932;BME280;39844;52.496;13.482;2023-04-06T09:30:11;101938.78;;;7.74;47.11
53932;BME280;39844;52.496;13.482;2023-04-06T09:32:51;101937.19;;;7.81;47.86
53932;BME280;39844;52.496;13.482;2023-04-06T09:35:18;101938.38;;;7.92;47.20
53932;BME280;39844;52.496;13.482;2023-04-06T09:37:43;101933.47;;;8.04;47.42
53932;BME280;39844;52.496;13.482;2023-04-06T09:40:09;101929.50;;;8.19;47.00
53932;BME280;39844;52.496;13.482;2023-04-06T09:42:35;101928.03;;;8.29;45.98
53932;BME280;39844;52.496;13.482;2023-04-06T09:45:02;101925.50;;;8.32;45.94
53932;BME280;39844;52.496;13.482;2023-04-06T09:47:28;101928.16;;;8.34;45.98
53932;BME280;39844;52.496;13.482;2023-04-06T09:49:59;101928.41;;;8.44;45.50
53932;BME280;39844;52.496;13.482;2023-04-06T09:52:32;101925.97;;;8.52;45.52
53932;BME280;39844;52.496;13.482;2023-04-06T09:55:02;101920.69;;;8.50;43.94
53932;BME280;39844;52.496;13.482;2023-04-06T09:57:50;101916.28;;;8.48;43.78
53932;BME280;39844;52.496;13.482;2023-04-06T10:00:16;101918.09;;;8.52;45.63
53932;BME280;39844;52.496;13.482;2023-04-06T10:05:37;101912.63;;;8.77;45.52
53932;BME280;39844;52.496;13.482;2023-04-06T10:08:08;101909.38;;;8.88;44.21
53932;BME280;39844;52.496;13.482;2023-04-06T10:10:34;101912.31;;;9.02;44.23
53932;BME280;39844;52.496;13.482;2023-04-06T10:12:59;101908.97;;;9.11;43.11
53932;BME280;39844;52.496;13.482;2023-04-06T10:15:25;101915.19;;;9.16;42.77
53932;BME280;39844;52.496;13.482;2023-04-06T10:17:52;101913.53;;;9.21;42.34
53932;BME280;39844;52.496;13.482;2023-04-06T10:20:34;101914.59;;;9.29;43.08
53932;BME280;39844;52.496;13.482;2023-04-06T10:25:35;101915.50;;;9.31;42.68
53932;BME280;39844;52.496;13.482;2023-04-06T10:28:08;101912.78;;;9.25;41.06
53932;BME280;39844;52.496;13.482;2023-04-06T10:30:34;101918.00;;;9.25;40.80
53932;BME280;39844;52.496;13.482;2023-04-06T10:33:00;101905.16;;;9.37;42.02
53932;BME280;39844;52.496;13.482;2023-04-06T10:35:37;101905.56;;;9.58;41.45
53932;BME280;39844;52.496;13.482;2023-04-06T10:38:03;101908.50;;;9.73;40.60
53932;BME280;39844;52.496;13.482;2023-04-06T10:40:29;101902.75;;;9.95;40.65
53932;BME280;39844;52.496;13.482;2023-04-06T10:42:55;101904.03;;;10.17;40.28
53932;BME280;39844;52.496;13.482;2023-04-06T10:45:31;101898.03;;;10.24;40.54
53932;BME280;39844;52.496;13.482;2023-04-06T10:47:56;101905.09;;;10.30;40.34
53932;BME280;39844;52.496;13.482;2023-04-06T10:50:22;101899.06;;;10.32;40.25
53932;BME280;39844;52.496;13.482;2023-04-06T10:52:58;101905.09;;;10.30;40.50
53932;BME280;39844;52.496;13.482;2023-04-06T10:55:26;101898.06;;;10.26;40.58
53932;BME280;39844;52.496;13.482;2023-04-06T10:57:51;101904.78;;;10.11;39.49
53932;BME280;39844;52.496;13.482;2023-04-06T11:00:17;101895.03;;;10.04;40.72
53932;BME280;39844;52.496;13.482;2023-04-06T11:02:42;101888.41;;;10.23;40.42
53932;BME280;39844;52.496;13.482;2023-04-06T11:05:08;101885.44;;;10.59;40.53
53932;BME280;39844;52.496;13.482;2023-04-06T11:07:36;101880.09;;;11.16;39.01
53932;BME280;39844;52.496;13.482;2023-04-06T11:10:01;101868.53;;;11.77;38.46
53932;BME280;39844;52.496;13.482;2023-04-06T11:12:27;101879.59;;;12.43;37.13
53932;BME280;39844;52.496;13.482;2023-04-06T11:14:57;101872.03;;;13.01;35.30
53932;BME280;39844;52.496;13.482;2023-04-06T11:17:26;101873.13;;;13.60;34.71
53932;BME280;39844;52.496;13.482;2023-04-06T11:19:52;101878.50;;;13.98;34.10
53932;BME280;39844;52.496;13.482;2023-04-06T11:22:17;101856.44;;;14.26;32.91
53932;BME280;39844;52.496;13.482;2023-04-06T11:24:43;101859.97;;;14.62;33.33
53932;BME280;39844;52.496;13.482;2023-04-06T11:27:08;101853.66;;;15.03;32.20
53932;BME280;39844;52.496;13.482;2023-04-06T11:29:34;101865.88;;;15.35;31.76
53932;BME280;39844;52.496;13.482;2023-04-06T11:32:01;101849.91;;;15.56;30.30
53932;BME280;39844;52.496;13.482;2023-04-06T11:34:29;101844.28;;;16.01;31.70
53932;BME280;39844;52.496;13.482;2023-04-06T11:36:59;101848.38;;;16.32;30.30
53932;BME280;39844;52.496;13.482;2023-04-06T11:39:26;101843.28;;;16.14;29.97
53932;BME280;39844;52.496;13.482;2023-04-06T11:42:02;101840.69;;;16.05;30.50
53932;BME280;39844;52.496;13.482;2023-04-06T11:44:38;101837.13;;;16.11;29.72
53932;BME280;39844;52.496;13.482;2023-04-06T11:47:05;101847.91;;;15.88;30.88
53932;BME280;39844;52.496;13.482;2023-04-06T11:49:31;101839.38;;;15.47;30.16
53932;BME280;39844;52.496;13.482;2023-04-06T11:51:59;101841.25;;;15.22;31.48
53932;BME280;39844;52.496;13.482;2023-04-06T11:54:34;101827.03;;;15.43;30.92
53932;BME280;39844;52.496;13.482;2023-04-06T11:57:01;101834.81;;;15.70;30.17
53932;BME280;39844;52.496;13.482;2023-04-06T11:59:27;101836.41;;;15.89;28.02
53932;BME280;39844;52.496;13.482;2023-04-06T12:01:52;101825.44;;;16.30;29.61
53932;BME280;39844;52.496;13.482;2023-04-06T12:04:17;101828.69;;;16.61;29.13
53932;BME280;39844;52.496;13.482;2023-04-06T12:06:43;101824.66;;;17.01;29.17
53932;BME280;39844;52.496;13.482;2023-04-06T12:09:09;101818.19;;;17.23;28.17
53932;BME280;39844;52.496;13.482;2023-04-06T12:11:34;101823.72;;;17.08;28.67
53932;BME280;39844;52.496;13.482;2023-04-06T12:13:59;101819.72;;;17.39;28.46
53932;BME280;39844;52.496;13.482;2023-04-06T12:16:24;101816.44;;;17.83;28.38
53932;BME280;39844;52.496;13.482;2023-04-06T12:18:51;101819.81;;;17.93;28.78
53932;BME280;39844;52.496;13.482;2023-04-06T12:21:16;101822.06;;;18.17;27.57
53932;BME280;39844;52.496;13.482;2023-04-06T12:23:41;101819.34;;;18.18;27.21
53932;BME280;39844;52.496;13.482;2023-04-06T12:26:07;101814.94;;;17.65;27.44
53932;BME280;39844;52.496;13.482;2023-04-06T12:28:32;101818.53;;;16.96;27.97
53932;BME280;39844;52.496;13.482;2023-04-06T12:30:57;101816.56;;;16.35;26.93
53932;BME280;39844;52.496;13.482;2023-04-06T12:33:23;101811.00;;;15.64;28.30
53932;BME280;39844;52.496;13.482;2023-04-06T12:35:48;101821.00;;;15.13;30.14
53932;BME280;39844;52.496;13.482;2023-04-06T12:38:13;101807.75;;;15.23;30.52
53932;BME280;39844;52.496;13.482;2023-04-06T12:40:39;101809.38;;;15.39;29.45
53932;BME280;39844;52.496;13.482;2023-04-06T12:43:04;101804.84;;;15.65;29.34
53932;BME280;39844;52.496;13.482;2023-04-06T12:45:30;101801.19;;;15.76;30.10
53932;BME280;39844;52.496;13.482;2023-04-06T12:47:56;101804.81;;;15.66;30.54